sensor_id;sensor_type;location;lat;lon;timestamp;P1;durP1;ratioP1;P2;durP2;ratioP2
11396;SDS011;5754;43.726;7.416;2022-11-20T00:02:08;2.83;;;1.30;;
11396;SDS011;5754;43.726;7.416;2022-11-20T00:04:43;1.37;;;1.20;;
11396;SDS011;5754;43.726;7.416;2022-11-20T00:07:17;2.90;;;1.27;;
11396;SDS011;5754;43.726;7.416;2022-11-20T00:09:52;1.40;;;1.30;;
11396;SDS011;5754;43.726;7.416;2022-11-20T00:12:26;1.67;;;1.20;;
11396;SDS011;5754;43.726;7.416;2022-11-20T00:15:01;1.87;;;1.20;;
11396;SDS011;5754;43.726;7.416;2022-11-20T00:17:36;1.50;;;1.37;;
11396;SDS011;5754;43.726;7.416;2022-11-20T00:20:10;1.87;;;1.70;;
11396;SDS011;5754;43.726;7.416;2022-11-20T00:22:44;1.90;;;1.30;;
11396;SDS011;5754;43.726;7.416;2022-11-20T00:25:19;2.37;;;1.53;;
11396;SDS011;5754;43.726;7.416;2022-11-20T00:27:55;1.53;;;1.40;;
11396;SDS011;5754;43.726;7.416;2022-11-20T00:30:30;1.87;;;1.43;;
11396;SDS011;5754;43.726;7.416;2022-11-20T00:33:04;1.60;;;1.30;;
11396;SDS011;5754;43.726;7.416;2022-11-20T00:35:39;2.53;;;1.20;;
11396;SDS011;5754;43.726;7.416;2022-11-20T00:38:13;1.60;;;1.40;;
11396;SDS011;5754;43.726;7.416;2022-11-20T00:40:53;2.53;;;1.30;;
11396;SDS011;5754;43.726;7.416;2022-11-20T00:43:28;1.87;;;1.37;;
11396;SDS011;5754;43.726;7.416;2022-11-20T00:46:04;1.90;;;1.40;;
11396;SDS011;5754;43.726;7.416;2022-11-20T00:48:39;1.97;;;1.40;;
11396;SDS011;5754;43.726;7.416;2022-11-20T00:51:17;1.57;;;1.33;;
11396;SDS011;5754;43.726;7.416;2022-11-20T00:53:51;2.00;;;1.50;;
11396;SDS011;5754;43.726;7.416;2022-11-20T00:56:26;1.70;;;1.43;;
11396;SDS011;5754;43.726;7.416;2022-11-20T00:59:00;2.63;;;1.47;;
11396;SDS011;5754;43.726;7.416;2022-11-20T01:01:34;1.80;;;1.40;;
11396;SDS011;5754;43.726;7.416;2022-11-20T01:04:10;1.60;;;1.30;;
11396;SDS011;5754;43.726;7.416;2022-11-20T01:06:44;2.03;;;1.50;;
11396;SDS011;5754;43.726;7.416;2022-11-20T01:09:19;1.33;;;1.20;;
11396;SDS011;5754;43.726;7.416;2022-11-20T01:11:53;1.20;;;1.10;;
11396;SDS011;5754;43.726;7.416;2022-11-20T01:14:28;1.40;;;1.23;;
11396;SDS011;5754;43.726;7.416;2022-11-20T01:17:02;1.80;;;1.30;;
11396;SDS011;5754;43.726;7.416;2022-11-20T01:19:36;1.80;;;1.23;;
11396;SDS011;5754;43.726;7.416;2022-11-20T01:22:11;1.40;;;1.30;;
11396;SDS011;5754;43.726;7.416;2022-11-20T01:24:46;1.20;;;1.10;;
11396;SDS011;5754;43.726;7.416;2022-11-20T01:27:21;2.50;;;1.30;;
11396;SDS011;5754;43.726;7.416;2022-11-20T01:29:56;1.37;;;1.10;;
11396;SDS011;5754;43.726;7.416;2022-11-20T01:32:34;1.37;;;1.27;;
11396;SDS011;5754;43.726;7.416;2022-11-20T01:35:08;2.30;;;1.43;;
11396;SDS011;5754;43.726;7.416;2022-11-20T01:37:43;1.63;;;1.30;;
11396;SDS011;5754;43.726;7.416;2022-11-20T01:40:18;1.77;;;1.13;;
11396;SDS011;5754;43.726;7.416;2022-11-20T01:42:55;1.87;;;1.23;;
11396;SDS011;5754;43.726;7.416;2022-11-20T01:45:58;1.63;;;1.13;;
11396;SDS011;5754;43.726;7.416;2022-11-20T01:48:40;1.90;;;1.30;;
11396;SDS011;5754;43.726;7.416;2022-11-20T01:51:19;1.60;;;1.10;;
11396;SDS011;5754;43.726;7.416;2022-11-20T01:53:55;1.47;;;1.37;;
11396;SDS011;5754;43.726;7.416;2022-11-20T01:56:32;2.93;;;1.40;;
11396;SDS011;5754;43.726;7.416;2022-11-20T01:59:08;3.13;;;1.40;;
11396;SDS011;5754;43.726;7.416;2022-11-20T02:01:44;1.63;;;1.37;;
11396;SDS011;5754;43.726;7.416;2022-11-20T02:04:18;3.23;;;1.30;;
11396;SDS011;5754;43.726;7.416;2022-11-20T02:06:58;1.93;;;1.53;;
11396;SDS011;5754;43.726;7.416;2022-11-20T02:09:34;2.20;;;1.60;;
11396;SDS011;5754;43.726;7.416;2022-11-20T02:12:08;2.50;;;1.60;;
11396;SDS011;5754;43.726;7.416;2022-11-20T02:16:23;1.97;;;1.40;;
11396;SDS011;5754;43.726;7.416;2022-11-20T02:19:00;3.13;;;1.70;;
11396;SDS011;5754;43.726;7.416;2022-11-20T02:22:19;3.17;;;1.50;;
11396;SDS011;5754;43.726;7.416;2022-11-20T02:24:56;2.77;;;1.30;;
11396;SDS011;5754;43.726;7.416;2022-11-20T02:27:33;3.03;;;1.63;;
11396;SDS011;5754;43.726;7.416;2022-11-20T02:30:10;5.67;;;1.60;;
11396;SDS011;5754;43.726;7.416;2022-11-20T02:32:44;2.10;;;1.27;;
11396;SDS011;5754;43.726;7.416;2022-11-20T02:35:40;1.73;;;1.30;;
11396;SDS011;5754;43.726;7.416;2022-11-20T02:38:15;2.13;;;1.40;;
11396;SDS011;5754;43.726;7.416;2022-11-20T02:40:50;3.17;;;1.70;;
11396;SDS011;5754;43.726;7.416;2022-11-20T02:43:28;1.63;;;1.33;;
11396;SDS011;5754;43.726;7.416;2022-11-20T02:46:03;2.63;;;1.30;;
11396;SDS011;5754;43.726;7.416;2022-11-20T02:48:40;3.23;;;1.50;;
11396;SDS011;5754;43.726;7.416;2022-11-20T02:51:15;4.10;;;1.33;;
11396;SDS011;5754;43.726;7.416;2022-11-20T02:53:49;2.60;;;1.47;;
11396;SDS011;5754;43.726;7.416;2022-11-20T02:56:23;1.97;;;1.30;;
11396;SDS011;5754;43.726;7.416;2022-11-20T02:58:58;3.40;;;1.20;;
11396;SDS011;5754;43.726;7.416;2022-11-20T03:01:32;2.70;;;1.53;;
11396;SDS011;5754;43.726;7.416;2022-11-20T03:04:07;2.30;;;1.33;;
11396;SDS011;5754;43.726;7.416;2022-11-20T03:06:41;3.13;;;1.50;;
11396;SDS011;5754;43.726;7.416;2022-11-20T03:09:16;2.53;;;1.50;;
11396;SDS011;5754;43.726;7.416;2022-11-20T03:11:50;4.10;;;1.60;;
11396;SDS011;5754;43.726;7.416;2022-11-20T03:14:24;3.63;;;1.20;;
11396;SDS011;5754;43.726;7.416;2022-11-20T03:16:59;2.50;;;1.30;;
11396;SDS011;5754;43.726;7.416;2022-11-20T03:19:33;5.40;;;1.57;;
11396;SDS011;5754;43.726;7.416;2022-11-20T03:22:07;1.60;;;1.50;;
11396;SDS011;5754;43.726;7.416;2022-11-20T03:24:42;1.57;;;1.20;;
11396;SDS011;5754;43.726;7.416;2022-11-20T03:27:16;1.50;;;1.30;;
11396;SDS011;5754;43.726;7.416;2022-11-20T03:29:50;2.53;;;1.40;;
11396;SDS011;5754;43.726;7.416;2022-11-20T03:32:25;1.77;;;1.40;;
11396;SDS011;5754;43.726;7.416;2022-11-20T03:34:59;1.30;;;1.20;;
11396;SDS011;5754;43.726;7.416;2022-11-20T03:37:34;1.73;;;1.40;;
11396;SDS011;5754;43.726;7.416;2022-11-20T03:40:09;1.77;;;1.40;;
11396;SDS011;5754;43.726;7.416;2022-11-20T03:42:43;2.67;;;1.43;;
11396;SDS011;5754;43.726;7.416;2022-11-20T03:45:20;1.30;;;1.20;;
11396;SDS011;5754;43.726;7.416;2022-11-20T03:47:55;1.90;;;1.20;;
11396;SDS011;5754;43.726;7.416;2022-11-20T03:50:30;2.37;;;1.13;;
11396;SDS011;5754;43.726;7.416;2022-11-20T03:53:04;2.03;;;1.30;;
11396;SDS011;5754;43.726;7.416;2022-11-20T03:55:38;1.50;;;1.20;;
11396;SDS011;5754;43.726;7.416;2022-11-20T03:58:13;2.07;;;1.30;;
11396;SDS011;5754;43.726;7.416;2022-11-20T04:00:48;2.13;;;1.60;;
11396;SDS011;5754;43.726;7.416;2022-11-20T04:03:22;1.70;;;1.10;;
11396;SDS011;5754;43.726;7.416;2022-11-20T04:06:06;1.67;;;1.20;;
11396;SDS011;5754;43.726;7.416;2022-11-20T04:08:40;1.90;;;1.30;;
11396;SDS011;5754;43.726;7.416;2022-11-20T04:11:19;1.40;;;1.10;;
11396;SDS011;5754;43.726;7.416;2022-11-20T04:13:55;3.57;;;1.30;;
11396;SDS011;5754;43.726;7.416;2022-11-20T04:16:30;2.03;;;1.10;;
11396;SDS011;5754;43.726;7.416;2022-11-20T04:19:06;1.77;;;1.20;;
11396;SDS011;5754;43.726;7.416;2022-11-20T04:21:44;2.10;;;1.00;;
11396;SDS011;5754;43.726;7.416;2022-11-20T04:24:19;3.57;;;1.30;;
11396;SDS011;5754;43.726;7.416;2022-11-20T04:26:53;1.20;;;1.10;;
11396;SDS011;5754;43.726;7.416;2022-11-20T04:29:27;1.90;;;1.30;;
11396;SDS011;5754;43.726;7.416;2022-11-20T04:32:02;1.63;;;1.20;;
11396;SDS011;5754;43.726;7.416;2022-11-20T04:34:37;3.93;;;1.60;;
11396;SDS011;5754;43.726;7.416;2022-11-20T04:37:14;2.27;;;1.30;;
11396;SDS011;5754;43.726;7.416;2022-11-20T04:39:48;1.40;;;1.30;;
11396;SDS011;5754;43.726;7.416;2022-11-20T04:42:23;2.97;;;1.10;;
11396;SDS011;5754;43.726;7.416;2022-11-20T04:45:03;1.77;;;1.00;;
11396;SDS011;5754;43.726;7.416;2022-11-20T04:47:37;3.10;;;1.33;;
11396;SDS011;5754;43.726;7.416;2022-11-20T04:50:12;1.40;;;1.20;;
11396;SDS011;5754;43.726;7.416;2022-11-20T04:52:46;1.40;;;1.10;;
11396;SDS011;5754;43.726;7.416;2022-11-20T04:55:21;2.20;;;1.20;;
11396;SDS011;5754;43.726;7.416;2022-11-20T05:00:37;1.80;;;1.20;;
11396;SDS011;5754;43.726;7.416;2022-11-20T05:03:12;1.23;;;1.13;;
11396;SDS011;5754;43.726;7.416;2022-11-20T05:05:46;1.70;;;1.40;;
11396;SDS011;5754;43.726;7.416;2022-11-20T05:08:21;1.30;;;1.10;;
11396;SDS011;5754;43.726;7.416;2022-11-20T05:11:05;2.53;;;1.20;;
11396;SDS011;5754;43.726;7.416;2022-11-20T05:13:40;2.40;;;1.40;;
11396;SDS011;5754;43.726;7.416;2022-11-20T05:16:16;1.20;;;1.00;;
11396;SDS011;5754;43.726;7.416;2022-11-20T05:18:52;1.57;;;1.10;;
11396;SDS011;5754;43.726;7.416;2022-11-20T05:21:27;1.10;;;1.00;;
11396;SDS011;5754;43.726;7.416;2022-11-20T05:24:01;1.57;;;1.27;;
11396;SDS011;5754;43.726;7.416;2022-11-20T05:26:35;1.37;;;1.10;;
11396;SDS011;5754;43.726;7.416;2022-11-20T05:29:10;1.70;;;1.10;;
11396;SDS011;5754;43.726;7.416;2022-11-20T05:31:45;2.40;;;1.10;;
11396;SDS011;5754;43.726;7.416;2022-11-20T05:34:20;1.20;;;1.10;;
11396;SDS011;5754;43.726;7.416;2022-11-20T05:36:57;1.40;;;1.20;;
11396;SDS011;5754;43.726;7.416;2022-11-20T05:39:31;2.23;;;1.30;;
11396;SDS011;5754;43.726;7.416;2022-11-20T05:42:06;1.53;;;1.40;;
11396;SDS011;5754;43.726;7.416;2022-11-20T05:44:59;1.83;;;1.27;;
11396;SDS011;5754;43.726;7.416;2022-11-20T05:47:34;1.50;;;1.10;;
11396;SDS011;5754;43.726;7.416;2022-11-20T05:50:08;2.20;;;1.30;;
11396;SDS011;5754;43.726;7.416;2022-11-20T05:52:42;3.27;;;1.13;;
11396;SDS011;5754;43.726;7.416;2022-11-20T05:55:17;1.20;;;1.10;;
11396;SDS011;5754;43.726;7.416;2022-11-20T05:57:52;2.07;;;1.40;;
11396;SDS011;5754;43.726;7.416;2022-11-20T06:00:28;1.50;;;1.30;;
11396;SDS011;5754;43.726;7.416;2022-11-20T06:03:02;1.57;;;1.00;;
11396;SDS011;5754;43.726;7.416;2022-11-20T06:05:36;1.50;;;1.40;;
11396;SDS011;5754;43.726;7.416;2022-11-20T06:08:10;1.23;;;0.80;;
11396;SDS011;5754;43.726;7.416;2022-11-20T06:10:45;1.60;;;1.10;;
11396;SDS011;5754;43.726;7.416;2022-11-20T06:13:20;1.40;;;1.30;;
11396;SDS011;5754;43.726;7.416;2022-11-20T06:15:54;2.93;;;1.27;;
11396;SDS011;5754;43.726;7.416;2022-11-20T06:18:29;1.83;;;1.23;;
11396;SDS011;5754;43.726;7.416;2022-11-20T06:21:05;2.17;;;1.17;;
11396;SDS011;5754;43.726;7.416;2022-11-20T06:23:39;1.53;;;1.00;;
11396;SDS011;5754;43.726;7.416;2022-11-20T06:26:18;1.07;;;0.93;;
11396;SDS011;5754;43.726;7.416;2022-11-20T06:28:53;1.50;;;1.00;;
11396;SDS011;5754;43.726;7.416;2022-11-20T06:31:29;2.00;;;1.10;;
11396;SDS011;5754;43.726;7.416;2022-11-20T06:34:08;1.27;;;1.17;;
11396;SDS011;5754;43.726;7.416;2022-11-20T06:36:42;1.20;;;1.10;;
11396;SDS011;5754;43.726;7.416;2022-11-20T06:39:18;1.33;;;1.10;;
11396;SDS011;5754;43.726;7.416;2022-11-20T06:41:52;1.87;;;1.07;;
11396;SDS011;5754;43.726;7.416;2022-11-20T06:44:30;1.80;;;1.60;;
11396;SDS011;5754;43.726;7.416;2022-11-20T06:47:04;1.17;;;1.07;;
11396;SDS011;5754;43.726;7.416;2022-11-20T06:49:39;1.40;;;1.30;;
11396;SDS011;5754;43.726;7.416;2022-11-20T06:52:13;2.00;;;1.50;;
11396;SDS011;5754;43.726;7.416;2022-11-20T06:54:47;3.10;;;1.73;;
11396;SDS011;5754;43.726;7.416;2022-11-20T06:57:22;4.53;;;1.67;;
11396;SDS011;5754;43.726;7.416;2022-11-20T06:59:56;2.73;;;1.30;;
11396;SDS011;5754;43.726;7.416;2022-11-20T07:02:30;2.37;;;1.10;;
11396;SDS011;5754;43.726;7.416;2022-11-20T07:05:05;3.30;;;1.10;;
11396;SDS011;5754;43.726;7.416;2022-11-20T07:07:41;2.03;;;1.30;;
11396;SDS011;5754;43.726;7.416;2022-11-20T07:10:16;1.40;;;1.20;;
11396;SDS011;5754;43.726;7.416;2022-11-20T07:12:51;1.40;;;1.03;;
11396;SDS011;5754;43.726;7.416;2022-11-20T07:15:26;3.13;;;1.63;;
11396;SDS011;5754;43.726;7.416;2022-11-20T07:18:01;2.60;;;1.37;;
11396;SDS011;5754;43.726;7.416;2022-11-20T07:20:35;2.33;;;1.30;;
11396;SDS011;5754;43.726;7.416;2022-11-20T07:23:10;1.67;;;1.10;;
11396;SDS011;5754;43.726;7.416;2022-11-20T07:25:44;1.83;;;1.30;;
11396;SDS011;5754;43.726;7.416;2022-11-20T07:28:18;1.67;;;1.20;;
11396;SDS011;5754;43.726;7.416;2022-11-20T07:30:53;1.77;;;1.20;;
11396;SDS011;5754;43.726;7.416;2022-11-20T07:33:28;0.90;;;0.80;;
11396;SDS011;5754;43.726;7.416;2022-11-20T07:36:03;2.57;;;1.50;;
11396;SDS011;5754;43.726;7.416;2022-11-20T07:38:38;3.03;;;2.00;;
11396;SDS011;5754;43.726;7.416;2022-11-20T07:41:12;3.03;;;1.53;;
11396;SDS011;5754;43.726;7.416;2022-11-20T07:43:47;1.73;;;1.40;;
11396;SDS011;5754;43.726;7.416;2022-11-20T07:46:22;2.20;;;1.80;;
11396;SDS011;5754;43.726;7.416;2022-11-20T07:48:56;1.97;;;1.57;;
11396;SDS011;5754;43.726;7.416;2022-11-20T07:51:30;3.40;;;2.00;;
11396;SDS011;5754;43.726;7.416;2022-11-20T07:54:05;2.35;;;1.60;;
11396;SDS011;5754;43.726;7.416;2022-11-20T07:56:39;1.47;;;1.10;;
11396;SDS011;5754;43.726;7.416;2022-11-20T07:59:13;2.33;;;1.40;;
11396;SDS011;5754;43.726;7.416;2022-11-20T08:01:49;2.70;;;1.40;;
11396;SDS011;5754;43.726;7.416;2022-11-20T08:04:23;1.70;;;1.33;;
11396;SDS011;5754;43.726;7.416;2022-11-20T08:06:58;1.45;;;1.12;;
11396;SDS011;5754;43.726;7.416;2022-11-20T08:09:32;2.08;;;1.20;;
11396;SDS011;5754;43.726;7.416;2022-11-20T08:12:18;1.10;;;1.00;;
11396;SDS011;5754;43.726;7.416;2022-11-20T08:15:11;3.60;;;1.20;;
11396;SDS011;5754;43.726;7.416;2022-11-20T08:17:46;1.12;;;0.80;;
11396;SDS011;5754;43.726;7.416;2022-11-20T08:20:30;1.15;;;1.00;;
11396;SDS011;5754;43.726;7.416;2022-11-20T08:23:05;1.12;;;0.93;;
11396;SDS011;5754;43.726;7.416;2022-11-20T08:25:41;1.60;;;1.00;;
11396;SDS011;5754;43.726;7.416;2022-11-20T08:28:15;1.58;;;0.90;;
11396;SDS011;5754;43.726;7.416;2022-11-20T08:30:57;1.30;;;0.80;;
11396;SDS011;5754;43.726;7.416;2022-11-20T08:33:32;1.67;;;1.10;;
11396;SDS011;5754;43.726;7.416;2022-11-20T08:36:06;1.20;;;1.10;;
11396;SDS011;5754;43.726;7.416;2022-11-20T08:38:41;1.77;;;1.10;;
11396;SDS011;5754;43.726;7.416;2022-11-20T08:41:16;1.80;;;1.05;;
11396;SDS011;5754;43.726;7.416;2022-11-20T08:43:57;1.25;;;1.00;;
11396;SDS011;5754;43.726;7.416;2022-11-20T08:46:33;1.25;;;0.90;;
11396;SDS011;5754;43.726;7.416;2022-11-20T08:49:10;1.15;;;1.05;;
11396;SDS011;5754;43.726;7.416;2022-11-20T08:51:45;1.30;;;1.10;;
11396;SDS011;5754;43.726;7.416;2022-11-20T08:54:25;1.40;;;1.30;;
11396;SDS011;5754;43.726;7.416;2022-11-20T08:56:59;1.42;;;1.20;;
11396;SDS011;5754;43.726;7.416;2022-11-20T08:59:33;4.60;;;1.10;;
11396;SDS011;5754;43.726;7.416;2022-11-20T09:02:31;1.20;;;1.00;;
11396;SDS011;5754;43.726;7.416;2022-11-20T09:05:05;3.40;;;1.00;;
11396;SDS011;5754;43.726;7.416;2022-11-20T09:07:40;1.85;;;0.90;;
11396;SDS011;5754;43.726;7.416;2022-11-20T09:10:15;1.42;;;0.80;;
11396;SDS011;5754;43.726;7.416;2022-11-20T09:12:56;1.15;;;1.05;;
11396;SDS011;5754;43.726;7.416;2022-11-20T09:15:31;1.37;;;1.02;;
11396;SDS011;5754;43.726;7.416;2022-11-20T09:18:06;3.22;;;1.08;;
11396;SDS011;5754;43.726;7.416;2022-11-20T09:20:41;2.65;;;1.08;;
11396;SDS011;5754;43.726;7.416;2022-11-20T09:23:15;3.05;;;1.08;;
11396;SDS011;5754;43.726;7.416;2022-11-20T09:25:50;1.48;;;1.00;;
11396;SDS011;5754;43.726;7.416;2022-11-20T09:28:26;1.70;;;1.00;;
11396;SDS011;5754;43.726;7.416;2022-11-20T09:31:03;2.30;;;0.90;;
11396;SDS011;5754;43.726;7.416;2022-11-20T09:33:39;1.25;;;1.12;;
11396;SDS011;5754;43.726;7.416;2022-11-20T09:36:13;1.50;;;0.98;;
11396;SDS011;5754;43.726;7.416;2022-11-20T09:38:47;1.20;;;1.00;;
11396;SDS011;5754;43.726;7.416;2022-11-20T09:44:40;0.98;;;0.90;;
11396;SDS011;5754;43.726;7.416;2022-11-20T09:53:36;2.20;;;1.23;;
11396;SDS011;5754;43.726;7.416;2022-11-20T09:56:14;0.98;;;0.90;;
11396;SDS011;5754;43.726;7.416;2022-11-20T09:58:51;1.80;;;1.00;;
11396;SDS011;5754;43.726;7.416;2022-11-20T10:01:26;2.22;;;0.90;;
11396;SDS011;5754;43.726;7.416;2022-11-20T10:04:14;1.17;;;0.90;;
11396;SDS011;5754;43.726;7.416;2022-11-20T10:07:11;2.08;;;1.25;;
11396;SDS011;5754;43.726;7.416;2022-11-20T10:10:19;1.60;;;1.10;;
11396;SDS011;5754;43.726;7.416;2022-11-20T10:25:37;1.10;;;1.00;;
11396;SDS011;5754;43.726;7.416;2022-11-20T10:28:50;2.42;;;0.90;;
11396;SDS011;5754;43.726;7.416;2022-11-20T10:35:34;1.35;;;1.10;;
11396;SDS011;5754;43.726;7.416;2022-11-20T10:38:14;1.48;;;1.10;;
11396;SDS011;5754;43.726;7.416;2022-11-20T10:40:54;1.05;;;0.95;;
11396;SDS011;5754;43.726;7.416;2022-11-20T10:44:00;1.20;;;1.10;;
11396;SDS011;5754;43.726;7.416;2022-11-20T10:46:45;2.35;;;1.25;;
11396;SDS011;5754;43.726;7.416;2022-11-20T10:49:19;1.35;;;1.20;;
11396;SDS011;5754;43.726;7.416;2022-11-20T10:51:59;1.20;;;1.10;;
11396;SDS011;5754;43.726;7.416;2022-11-20T10:54:43;1.15;;;1.05;;
11396;SDS011;5754;43.726;7.416;2022-11-20T10:57:25;1.15;;;1.05;;
11396;SDS011;5754;43.726;7.416;2022-11-20T11:00:11;1.15;;;1.05;;
11396;SDS011;5754;43.726;7.416;2022-11-20T11:02:48;2.00;;;1.80;;
11396;SDS011;5754;43.726;7.416;2022-11-20T11:08:17;1.20;;;1.10;;
11396;SDS011;5754;43.726;7.416;2022-11-20T11:10:51;1.60;;;1.00;;
11396;SDS011;5754;43.726;7.416;2022-11-20T11:13:27;1.10;;;1.00;;
11396;SDS011;5754;43.726;7.416;2022-11-20T11:16:02;3.33;;;1.27;;
11396;SDS011;5754;43.726;7.416;2022-11-20T11:18:37;1.87;;;1.48;;
11396;SDS011;5754;43.726;7.416;2022-11-20T11:21:13;1.73;;;1.40;;
11396;SDS011;5754;43.726;7.416;2022-11-20T11:23:59;2.78;;;1.40;;
11396;SDS011;5754;43.726;7.416;2022-11-20T11:26:50;3.67;;;1.50;;
11396;SDS011;5754;43.726;7.416;2022-11-20T11:29:25;2.47;;;1.40;;
11396;SDS011;5754;43.726;7.416;2022-11-20T11:32:12;3.28;;;1.35;;
11396;SDS011;5754;43.726;7.416;2022-11-20T11:35:05;1.42;;;1.30;;
11396;SDS011;5754;43.726;7.416;2022-11-20T11:37:40;2.95;;;1.60;;
11396;SDS011;5754;43.726;7.416;2022-11-20T11:40:15;2.10;;;1.33;;
11396;SDS011;5754;43.726;7.416;2022-11-20T11:42:57;2.20;;;1.80;;
11396;SDS011;5754;43.726;7.416;2022-11-20T11:45:33;2.85;;;1.58;;
11396;SDS011;5754;43.726;7.416;2022-11-20T11:48:08;1.92;;;1.50;;
11396;SDS011;5754;43.726;7.416;2022-11-20T11:50:47;1.75;;;1.40;;
11396;SDS011;5754;43.726;7.416;2022-11-20T11:53:22;2.55;;;1.40;;
11396;SDS011;5754;43.726;7.416;2022-11-20T11:56:03;2.58;;;1.65;;
11396;SDS011;5754;43.726;7.416;2022-11-20T11:58:52;2.33;;;1.30;;
11396;SDS011;5754;43.726;7.416;2022-11-20T12:01:32;1.52;;;1.40;;
11396;SDS011;5754;43.726;7.416;2022-11-20T12:04:19;1.48;;;1.33;;
11396;SDS011;5754;43.726;7.416;2022-11-20T12:07:00;1.60;;;1.48;;
11396;SDS011;5754;43.726;7.416;2022-11-20T12:09:43;2.00;;;1.40;;
11396;SDS011;5754;43.726;7.416;2022-11-20T12:12:21;2.70;;;1.75;;
11396;SDS011;5754;43.726;7.416;2022-11-20T12:14:56;3.05;;;1.90;;
11396;SDS011;5754;43.726;7.416;2022-11-20T12:17:32;3.80;;;1.90;;
11396;SDS011;5754;43.726;7.416;2022-11-20T12:20:15;3.22;;;1.60;;
11396;SDS011;5754;43.726;7.416;2022-11-20T12:22:55;3.90;;;1.52;;
11396;SDS011;5754;43.726;7.416;2022-11-20T12:25:32;1.95;;;1.50;;
11396;SDS011;5754;43.726;7.416;2022-11-20T12:36:30;1.65;;;1.52;;
11396;SDS011;5754;43.726;7.416;2022-11-20T12:39:14;2.75;;;1.80;;
11396;SDS011;5754;43.726;7.416;2022-11-20T12:42:08;2.55;;;1.23;;
11396;SDS011;5754;43.726;7.416;2022-11-20T12:45:54;2.50;;;1.33;;
11396;SDS011;5754;43.726;7.416;2022-11-20T12:50:04;1.70;;;1.50;;
11396;SDS011;5754;43.726;7.416;2022-11-20T12:52:48;1.80;;;1.37;;
11396;SDS011;5754;43.726;7.416;2022-11-20T12:55:45;4.07;;;1.37;;
11396;SDS011;5754;43.726;7.416;2022-11-20T12:58:26;1.80;;;1.70;;
11396;SDS011;5754;43.726;7.416;2022-11-20T13:01:24;1.67;;;1.50;;
11396;SDS011;5754;43.726;7.416;2022-11-20T13:04:30;2.63;;;1.50;;
11396;SDS011;5754;43.726;7.416;2022-11-20T13:07:10;2.70;;;1.60;;
11396;SDS011;5754;43.726;7.416;2022-11-20T13:09:46;2.47;;;1.47;;
11396;SDS011;5754;43.726;7.416;2022-11-20T13:15:57;2.70;;;1.60;;
11396;SDS011;5754;43.726;7.416;2022-11-20T13:18:37;2.03;;;1.80;;
11396;SDS011;5754;43.726;7.416;2022-11-20T13:21:35;2.67;;;1.67;;
11396;SDS011;5754;43.726;7.416;2022-11-20T13:24:29;3.00;;;1.43;;
11396;SDS011;5754;43.726;7.416;2022-11-20T13:27:05;3.73;;;1.50;;
11396;SDS011;5754;43.726;7.416;2022-11-20T13:29:46;2.33;;;1.40;;
11396;SDS011;5754;43.726;7.416;2022-11-20T13:32:21;1.53;;;1.43;;
11396;SDS011;5754;43.726;7.416;2022-11-20T13:34:56;1.80;;;1.60;;
11396;SDS011;5754;43.726;7.416;2022-11-20T13:37:35;3.20;;;1.80;;
11396;SDS011;5754;43.726;7.416;2022-11-20T13:40:13;1.97;;;1.70;;
11396;SDS011;5754;43.726;7.416;2022-11-20T13:45:59;2.30;;;1.70;;
11396;SDS011;5754;43.726;7.416;2022-11-20T13:48:38;2.10;;;1.43;;
11396;SDS011;5754;43.726;7.416;2022-11-20T13:51:23;1.77;;;1.40;;
11396;SDS011;5754;43.726;7.416;2022-11-20T13:55:36;2.67;;;1.77;;
11396;SDS011;5754;43.726;7.416;2022-11-20T14:02:18;4.37;;;2.17;;
11396;SDS011;5754;43.726;7.416;2022-11-20T14:04:54;3.73;;;2.50;;
11396;SDS011;5754;43.726;7.416;2022-11-20T14:07:34;4.23;;;1.90;;
11396;SDS011;5754;43.726;7.416;2022-11-20T14:10:23;3.43;;;1.90;;
11396;SDS011;5754;43.726;7.416;2022-11-20T14:13:15;1.73;;;1.60;;
11396;SDS011;5754;43.726;7.416;2022-11-20T14:15:56;4.33;;;1.90;;
11396;SDS011;5754;43.726;7.416;2022-11-20T14:18:30;3.33;;;1.70;;
11396;SDS011;5754;43.726;7.416;2022-11-20T14:21:05;1.90;;;1.70;;
11396;SDS011;5754;43.726;7.416;2022-11-20T14:23:39;2.07;;;1.70;;
11396;SDS011;5754;43.726;7.416;2022-11-20T14:26:14;1.70;;;1.57;;
11396;SDS011;5754;43.726;7.416;2022-11-20T14:28:53;2.40;;;1.70;;
11396;SDS011;5754;43.726;7.416;2022-11-20T14:31:29;2.40;;;1.80;;
11396;SDS011;5754;43.726;7.416;2022-11-20T14:34:04;4.13;;;1.77;;
11396;SDS011;5754;43.726;7.416;2022-11-20T14:36:40;3.50;;;1.70;;
11396;SDS011;5754;43.726;7.416;2022-11-20T14:39:20;3.17;;;2.10;;
11396;SDS011;5754;43.726;7.416;2022-11-20T14:41:55;2.13;;;1.80;;
11396;SDS011;5754;43.726;7.416;2022-11-20T14:44:33;2.73;;;1.70;;
11396;SDS011;5754;43.726;7.416;2022-11-20T14:47:08;3.87;;;1.90;;
11396;SDS011;5754;43.726;7.416;2022-11-20T14:49:46;4.13;;;2.03;;
11396;SDS011;5754;43.726;7.416;2022-11-20T14:52:23;2.73;;;1.70;;
11396;SDS011;5754;43.726;7.416;2022-11-20T14:54:58;2.47;;;1.90;;
11396;SDS011;5754;43.726;7.416;2022-11-20T14:57:35;4.73;;;2.00;;
11396;SDS011;5754;43.726;7.416;2022-11-20T15:00:19;5.63;;;3.00;;
11396;SDS011;5754;43.726;7.416;2022-11-20T15:02:55;3.10;;;2.57;;
11396;SDS011;5754;43.726;7.416;2022-11-20T15:05:49;2.87;;;2.40;;
11396;SDS011;5754;43.726;7.416;2022-11-20T15:08:24;3.33;;;1.80;;
11396;SDS011;5754;43.726;7.416;2022-11-20T15:10:58;4.73;;;1.80;;
11396;SDS011;5754;43.726;7.416;2022-11-20T15:13:34;2.20;;;1.83;;
11396;SDS011;5754;43.726;7.416;2022-11-20T15:16:17;2.70;;;1.93;;
11396;SDS011;5754;43.726;7.416;2022-11-20T15:18:52;4.47;;;1.90;;
11396;SDS011;5754;43.726;7.416;2022-11-20T15:21:27;2.53;;;1.83;;
11396;SDS011;5754;43.726;7.416;2022-11-20T15:24:02;2.77;;;1.80;;
11396;SDS011;5754;43.726;7.416;2022-11-20T15:26:38;5.43;;;2.10;;
11396;SDS011;5754;43.726;7.416;2022-11-20T15:29:14;2.97;;;2.00;;
11396;SDS011;5754;43.726;7.416;2022-11-20T15:31:54;4.90;;;2.00;;
11396;SDS011;5754;43.726;7.416;2022-11-20T15:34:29;2.53;;;2.03;;
11396;SDS011;5754;43.726;7.416;2022-11-20T15:37:03;5.10;;;2.10;;
11396;SDS011;5754;43.726;7.416;2022-11-20T15:42:22;5.17;;;2.00;;
11396;SDS011;5754;43.726;7.416;2022-11-20T15:44:56;6.17;;;2.20;;
11396;SDS011;5754;43.726;7.416;2022-11-20T15:47:34;3.03;;;1.90;;
11396;SDS011;5754;43.726;7.416;2022-11-20T15:50:11;4.43;;;1.97;;
11396;SDS011;5754;43.726;7.416;2022-11-20T15:52:49;2.57;;;1.77;;
11396;SDS011;5754;43.726;7.416;2022-11-20T15:55:24;3.30;;;2.00;;
11396;SDS011;5754;43.726;7.416;2022-11-20T15:57:58;4.87;;;2.50;;
11396;SDS011;5754;43.726;7.416;2022-11-20T16:00:33;4.40;;;2.00;;
11396;SDS011;5754;43.726;7.416;2022-11-20T16:03:09;3.60;;;3.00;;
11396;SDS011;5754;43.726;7.416;2022-11-20T16:05:45;4.13;;;2.27;;
11396;SDS011;5754;43.726;7.416;2022-11-20T16:08:19;5.80;;;2.20;;
11396;SDS011;5754;43.726;7.416;2022-11-20T16:10:54;3.40;;;2.23;;
11396;SDS011;5754;43.726;7.416;2022-11-20T16:13:28;6.60;;;2.20;;
11396;SDS011;5754;43.726;7.416;2022-11-20T16:16:23;2.93;;;1.80;;
11396;SDS011;5754;43.726;7.416;2022-11-20T16:19:02;4.30;;;2.30;;
11396;SDS011;5754;43.726;7.416;2022-11-20T16:21:38;3.00;;;1.80;;
11396;SDS011;5754;43.726;7.416;2022-11-20T16:24:15;2.20;;;2.00;;
11396;SDS011;5754;43.726;7.416;2022-11-20T16:26:53;2.93;;;1.87;;
11396;SDS011;5754;43.726;7.416;2022-11-20T16:29:27;2.30;;;1.70;;
11396;SDS011;5754;43.726;7.416;2022-11-20T16:32:02;6.50;;;3.57;;
11396;SDS011;5754;43.726;7.416;2022-11-20T16:34:36;6.57;;;2.30;;
11396;SDS011;5754;43.726;7.416;2022-11-20T16:37:10;4.50;;;2.40;;
11396;SDS011;5754;43.726;7.416;2022-11-20T16:39:44;3.33;;;1.90;;
11396;SDS011;5754;43.726;7.416;2022-11-20T16:42:19;2.43;;;1.90;;
11396;SDS011;5754;43.726;7.416;2022-11-20T16:44:54;2.87;;;1.93;;
11396;SDS011;5754;43.726;7.416;2022-11-20T16:47:32;2.60;;;1.83;;
11396;SDS011;5754;43.726;7.416;2022-11-20T16:50:07;5.23;;;2.00;;
11396;SDS011;5754;43.726;7.416;2022-11-20T16:52:42;3.73;;;2.20;;
11396;SDS011;5754;43.726;7.416;2022-11-20T16:55:16;2.60;;;2.13;;
11396;SDS011;5754;43.726;7.416;2022-11-20T16:57:51;2.87;;;1.80;;
11396;SDS011;5754;43.726;7.416;2022-11-20T17:00:25;3.87;;;2.10;;
11396;SDS011;5754;43.726;7.416;2022-11-20T17:02:59;2.50;;;2.17;;